sensor_id;sensor_type;location;lat;lon;timestamp;pressure;altitude;pressure_sealevel;temperature;humidity
56040;BME280;43937;41.366;2.072;2023-11-18T00:01:03;101842.50;;;16.32;85.62
56040;BME280;43937;41.366;2.072;2023-11-18T00:03:29;101850.34;;;16.43;84.98
56040;BME280;43937;41.366;2.072;2023-11-18T00:07:12;101847.59;;;16.43;84.95
56040;BME280;43937;41.366;2.072;2023-11-18T00:09:37;101831.84;;;16.29;85.23
56040;BME280;43937;41.366;2.072;2023-11-18T00:12:03;101845.25;;;16.32;85.38
56040;BME280;43937;41.366;2.072;2023-11-18T00:14:29;101850.34;;;16.43;85.64
56040;BME280;43937;41.366;2.072;2023-11-18T00:18:09;101858.03;;;16.48;85.49
56040;BME280;43937;41.366;2.072;2023-11-18T00:20:34;101841.78;;;16.38;85.51
56040;BME280;43937;41.366;2.072;2023-11-18T00:23:01;101849.56;;;16.58;85.25
56040;BME280;43937;41.366;2.072;2023-11-18T00:25:29;101851.91;;;16.38;85.00
56040;BME280;43937;41.366;2.072;2023-11-18T00:27:55;101846.41;;;16.38;85.48
56040;BME280;43937;41.366;2.072;2023-11-18T00:30:20;101855.03;;;16.26;84.84
56040;BME280;43937;41.366;2.072;2023-11-18T00:34:07;101836.06;;;16.00;85.93
56040;BME280;43937;41.366;2.072;2023-11-18T00:36:32;101840.00;;;16.06;85.57
56040;BME280;43937;41.366;2.072;2023-11-18T00:38:58;101838.84;;;15.92;85.93
56040;BME280;43937;41.366;2.072;2023-11-18T00:41:23;101835.41;;;15.90;86.28
56040;BME280;43937;41.366;2.072;2023-11-18T00:43:49;101843.63;;;15.90;86.23
56040;BME280;43937;41.366;2.072;2023-11-18T00:47:06;101840.19;;;15.96;86.66
56040;BME280;43937;41.366;2.072;2023-11-18T00:51:33;101851.78;;;16.31;85.70
56040;BME280;43937;41.366;2.072;2023-11-18T00:53:58;101846.09;;;16.33;85.47
56040;BME280;43937;41.366;2.072;2023-11-18T00:57:23;101854.13;;;16.42;84.45
56040;BME280;43937;41.366;2.072;2023-11-18T00:59:48;101846.91;;;16.41;84.41
56040;BME280;43937;41.366;2.072;2023-11-18T01:06:30;101848.63;;;16.42;84.49
56040;BME280;43937;41.366;2.072;2023-11-18T01:08:57;101848.63;;;16.42;84.23
56040;BME280;43937;41.366;2.072;2023-11-18T01:12:08;101850.34;;;16.43;84.29
56040;BME280;43937;41.366;2.072;2023-11-18T01:14:38;101841.81;;;16.30;85.03
56040;BME280;43937;41.366;2.072;2023-11-18T01:17:25;101838.69;;;16.33;84.86
56040;BME280;43937;41.366;2.072;2023-11-18T01:19:50;101844.06;;;16.26;84.19
56040;BME280;43937;41.366;2.072;2023-11-18T01:22:16;101843.69;;;16.30;84.70
56040;BME280;43937;41.366;2.072;2023-11-18T01:24:44;101842.13;;;16.35;83.74
56040;BME280;43937;41.366;2.072;2023-11-18T01:27:22;101837.50;;;16.27;82.69
56040;BME280;43937;41.366;2.072;2023-11-18T01:29:48;101839.28;;;16.12;83.14
56040;BME280;43937;41.366;2.072;2023-11-18T01:32:13;101841.38;;;16.02;84.12
56040;BME280;43937;41.366;2.072;2023-11-18T01:35:33;101849.13;;;15.90;83.92
56040;BME280;43937;41.366;2.072;2023-11-18T01:37:58;101830.63;;;15.76;85.16
56040;BME280;43937;41.366;2.072;2023-11-18T01:40:23;101840.25;;;15.80;84.81
56040;BME280;43937;41.366;2.072;2023-11-18T01:42:49;101832.66;;;15.66;85.42
56040;BME280;43937;41.366;2.072;2023-11-18T01:45:15;101835.41;;;15.66;85.49
56040;BME280;43937;41.366;2.072;2023-11-18T01:47:42;101811.25;;;15.37;85.58
56040;BME280;43937;41.366;2.072;2023-11-18T01:50:33;101836.78;;;15.53;86.22
56040;BME280;43937;41.366;2.072;2023-11-18T01:52:58;101843.13;;;15.46;86.41
56040;BME280;43937;41.366;2.072;2023-11-18T01:55:26;101826.84;;;15.36;86.98
56040;BME280;43937;41.366;2.072;2023-11-18T02:00:41;101849.13;;;15.25;87.29
56040;BME280;43937;41.366;2.072;2023-11-18T02:03:11;101826.84;;;15.28;86.58
56040;BME280;43937;41.366;2.072;2023-11-18T02:06:40;101851.19;;;15.39;86.04
56040;BME280;43937;41.366;2.072;2023-11-18T02:09:47;101841.63;;;15.43;85.36
56040;BME280;43937;41.366;2.072;2023-11-18T02:12:31;101850.69;;;15.44;85.55
56040;BME280;43937;41.366;2.072;2023-11-18T02:15:02;101840.91;;;15.25;86.41
56040;BME280;43937;41.366;2.072;2023-11-18T02:17:37;101842.44;;;15.27;87.38
56040;BME280;43937;41.366;2.072;2023-11-18T02:20:04;101840.22;;;15.31;87.63
56040;BME280;43937;41.366;2.072;2023-11-18T02:24:29;101824.44;;;15.33;87.45
56040;BME280;43937;41.366;2.072;2023-11-18T02:28:40;101815.03;;;15.44;86.70
56040;BME280;43937;41.366;2.072;2023-11-18T02:34:56;101816.75;;;15.28;86.26
56040;BME280;43937;41.366;2.072;2023-11-18T02:37:24;101820.34;;;15.29;86.57
56040;BME280;43937;41.366;2.072;2023-11-18T02:41:13;101818.63;;;15.44;86.48
56040;BME280;43937;41.366;2.072;2023-11-18T02:43:40;101823.44;;;15.34;86.37
56040;BME280;43937;41.366;2.072;2023-11-18T02:46:07;101806.47;;;15.22;87.36
56040;BME280;43937;41.366;2.072;2023-11-18T02:49:55;101796.88;;;15.34;87.01
56040;BME280;43937;41.366;2.072;2023-11-18T02:52:32;101795.97;;;15.42;86.77
56040;BME280;43937;41.366;2.072;2023-11-18T02:58:13;101821.38;;;15.77;84.70
56040;BME280;43937;41.366;2.072;2023-11-18T03:00:39;101811.75;;;15.81;84.10
56040;BME280;43937;41.366;2.072;2023-11-18T03:03:04;101812.78;;;15.80;83.65
56040;BME280;43937;41.366;2.072;2023-11-18T03:05:30;101817.91;;;15.67;83.18
56040;BME280;43937;41.366;2.072;2023-11-18T03:07:56;101809.72;;;15.50;83.99
56040;BME280;43937;41.366;2.072;2023-11-18T03:13:03;101827.88;;;15.51;84.59
56040;BME280;43937;41.366;2.072;2023-11-18T03:16:50;101791.19;;;15.44;83.82
56040;BME280;43937;41.366;2.072;2023-11-18T03:19:16;101814.31;;;15.58;83.17
56040;BME280;43937;41.366;2.072;2023-11-18T03:21:41;101805.25;;;15.33;83.23
56040;BME280;43937;41.366;2.072;2023-11-18T03:24:08;101770.97;;;15.12;83.88
56040;BME280;43937;41.366;2.072;2023-11-18T03:26:34;101818.81;;;15.26;84.30
56040;BME280;43937;41.366;2.072;2023-11-18T03:29:00;101807.81;;;15.18;84.30
56040;BME280;43937;41.366;2.072;2023-11-18T03:31:25;101818.25;;;15.06;84.71
56040;BME280;43937;41.366;2.072;2023-11-18T03:33:51;101817.59;;;15.21;83.94
56040;BME280;43937;41.366;2.072;2023-11-18T03:36:17;101817.94;;;15.26;84.20
56040;BME280;43937;41.366;2.072;2023-11-18T03:40:46;101815.03;;;15.19;85.03
56040;BME280;43937;41.366;2.072;2023-11-18T03:44:25;101803.88;;;15.21;85.25
56040;BME280;43937;41.366;2.072;2023-11-18T03:46:50;101812.97;;;15.29;84.97
56040;BME280;43937;41.366;2.072;2023-11-18T03:51:30;101792.22;;;15.27;84.88
56040;BME280;43937;41.366;2.072;2023-11-18T03:55:39;101786.72;;;15.27;83.85
56040;BME280;43937;41.366;2.072;2023-11-18T03:58:05;101789.47;;;15.19;83.64
56040;BME280;43937;41.366;2.072;2023-11-18T04:00:30;101788.78;;;15.08;83.50
56040;BME280;43937;41.366;2.072;2023-11-18T04:05:37;101784.66;;;14.80;84.81
56040;BME280;43937;41.366;2.072;2023-11-18T04:08:04;101787.06;;;14.91;84.61
56040;BME280;43937;41.366;2.072;2023-11-18T04:10:29;101768.56;;;14.77;84.52
56040;BME280;43937;41.366;2.072;2023-11-18T04:12:55;101798.38;;;14.80;85.30
56040;BME280;43937;41.366;2.072;2023-11-18T04:15:20;101802.47;;;14.68;85.31
56040;BME280;43937;41.366;2.072;2023-11-18T04:17:46;101807.78;;;14.77;84.84
56040;BME280;43937;41.366;2.072;2023-11-18T04:20:42;101809.69;;;14.77;85.40
56040;BME280;43937;41.366;2.072;2023-11-18T04:23:08;101814.13;;;14.78;85.27
56040;BME280;43937;41.366;2.072;2023-11-18T04:25:33;101818.22;;;14.82;85.06
56040;BME280;43937;41.366;2.072;2023-11-18T04:27:59;101815.66;;;14.88;84.60
56040;BME280;43937;41.366;2.072;2023-11-18T04:30:24;101822.03;;;14.89;84.11
56040;BME280;43937;41.366;2.072;2023-11-18T04:33:53;101806.38;;;14.73;83.74
56040;BME280;43937;41.366;2.072;2023-11-18T04:36:21;101825.41;;;14.75;83.14
56040;BME280;43937;41.366;2.072;2023-11-18T04:38:47;101797.44;;;14.55;83.00
56040;BME280;43937;41.366;2.072;2023-11-18T04:41:13;101818.03;;;14.67;83.38
56040;BME280;43937;41.366;2.072;2023-11-18T04:44:41;101795.25;;;14.66;82.99
56040;BME280;43937;41.366;2.072;2023-11-18T04:47:07;101782.19;;;14.52;82.98
56040;BME280;43937;41.366;2.072;2023-11-18T04:49:32;101777.75;;;14.51;82.85
56040;BME280;43937;41.366;2.072;2023-11-18T04:51:58;101777.16;;;14.39;82.65
56040;BME280;43937;41.366;2.072;2023-11-18T04:54:24;101802.47;;;14.68;82.31
56040;BME280;43937;41.366;2.072;2023-11-18T04:59:02;101787.66;;;14.52;81.96
56040;BME280;43937;41.366;2.072;2023-11-18T05:04:15;101779.06;;;14.47;82.33
56040;BME280;43937;41.366;2.072;2023-11-18T05:06:41;101784.53;;;14.39;82.79
56040;BME280;43937;41.366;2.072;2023-11-18T05:09:51;101771.50;;;14.33;83.37
56040;BME280;43937;41.366;2.072;2023-11-18T05:12:17;101769.78;;;14.32;82.74
56040;BME280;43937;41.366;2.072;2023-11-18T05:14:42;101778.56;;;14.43;82.70
56040;BME280;43937;41.366;2.072;2023-11-18T05:17:07;101791.44;;;14.51;83.01
56040;BME280;43937;41.366;2.072;2023-11-18T05:19:33;101784.19;;;14.42;83.09
56040;BME280;43937;41.366;2.072;2023-11-18T05:21:59;101782.31;;;14.42;83.15
56040;BME280;43937;41.366;2.072;2023-11-18T05:24:25;101792.59;;;14.49;83.44
56040;BME280;43937;41.366;2.072;2023-11-18T05:29:04;101782.63;;;14.39;83.37
56040;BME280;43937;41.366;2.072;2023-11-18T05:31:31;101769.63;;;14.41;83.06
56040;BME280;43937;41.366;2.072;2023-11-18T05:37:33;101756.06;;;14.24;82.68
56040;BME280;43937;41.366;2.072;2023-11-18T05:40:24;101756.75;;;14.34;82.05
56040;BME280;43937;41.366;2.072;2023-11-18T05:42:50;101771.53;;;14.49;82.13
56040;BME280;43937;41.366;2.072;2023-11-18T05:45:17;101789.75;;;14.66;81.31
56040;BME280;43937;41.366;2.072;2023-11-18T05:49:39;101776.06;;;14.58;80.21
56040;BME280;43937;41.366;2.072;2023-11-18T05:52:05;101778.81;;;14.58;80.22
56040;BME280;43937;41.366;2.072;2023-11-18T05:55:28;101765.88;;;14.42;80.75
56040;BME280;43937;41.366;2.072;2023-11-18T05:57:53;101786.13;;;14.58;80.64
56040;BME280;43937;41.366;2.072;2023-11-18T06:00:18;101780.66;;;14.58;80.55
56040;BME280;43937;41.366;2.072;2023-11-18T06:04:16;101768.50;;;14.60;80.65
56040;BME280;43937;41.366;2.072;2023-11-18T06:11:25;101775.75;;;14.78;79.94
56040;BME280;43937;41.366;2.072;2023-11-18T06:13:51;101767.53;;;14.78;79.93
56040;BME280;43937;41.366;2.072;2023-11-18T06:16:21;101765.47;;;14.80;80.27
56040;BME280;43937;41.366;2.072;2023-11-18T06:18:54;101783.09;;;14.85;80.14
56040;BME280;43937;41.366;2.072;2023-11-18T06:21:23;101763.06;;;14.85;80.11
56040;BME280;43937;41.366;2.072;2023-11-18T06:23:50;101765.47;;;14.96;79.37
56040;BME280;43937;41.366;2.072;2023-11-18T06:26:16;101772.00;;;14.87;78.79
56040;BME280;43937;41.366;2.072;2023-11-18T06:28:44;101771.63;;;14.82;79.54
56040;BME280;43937;41.366;2.072;2023-11-18T06:31:11;101781.94;;;14.96;79.27
56040;BME280;43937;41.366;2.072;2023-11-18T06:33:47;101775.06;;;15.00;78.90
56040;BME280;43937;41.366;2.072;2023-11-18T06:38:48;101785.38;;;14.98;78.89
56040;BME280;43937;41.366;2.072;2023-11-18T06:41:19;101780.91;;;14.89;78.43
56040;BME280;43937;41.366;2.072;2023-11-18T06:45:18;101790.66;;;15.00;78.35
56040;BME280;43937;41.366;2.072;2023-11-18T06:47:44;101801.63;;;15.00;77.72
56040;BME280;43937;41.366;2.072;2023-11-18T06:52:06;101800.28;;;15.04;77.96
56040;BME280;43937;41.366;2.072;2023-11-18T06:54:31;101801.47;;;15.09;77.47
56040;BME280;43937;41.366;2.072;2023-11-18T06:56:58;101790.00;;;15.06;77.53
56040;BME280;43937;41.366;2.072;2023-11-18T07:02:17;101791.72;;;15.07;77.35
56040;BME280;43937;41.366;2.072;2023-11-18T07:04:42;101806.59;;;15.12;76.98
56040;BME280;43937;41.366;2.072;2023-11-18T07:07:50;101803.19;;;15.19;76.60
56040;BME280;43937;41.366;2.072;2023-11-18T07:10:16;101811.94;;;15.30;76.26
56040;BME280;43937;41.366;2.072;2023-11-18T07:12:46;101806.44;;;15.39;76.09
56040;BME280;43937;41.366;2.072;2023-11-18T07:15:27;101805.25;;;15.41;75.13
56040;BME280;43937;41.366;2.072;2023-11-18T07:20:36;101822.91;;;15.71;74.38
56040;BME280;43937;41.366;2.072;2023-11-18T07:23:02;101820.66;;;15.83;73.55
56040;BME280;43937;41.366;2.072;2023-11-18T07:25:27;101830.44;;;15.86;73.60
56040;BME280;43937;41.366;2.072;2023-11-18T07:28:48;101824.28;;;15.75;73.56
56040;BME280;43937;41.366;2.072;2023-11-18T07:35:13;101839.53;;;15.78;73.87
56040;BME280;43937;41.366;2.072;2023-11-18T07:39:11;101835.91;;;15.94;73.93
56040;BME280;43937;41.366;2.072;2023-11-18T07:41:41;101832.31;;;15.93;73.43
56040;BME280;43937;41.366;2.072;2023-11-18T07:44:07;101842.25;;;16.02;72.88
56040;BME280;43937;41.366;2.072;2023-11-18T07:46:36;101827.50;;;15.87;72.87
56040;BME280;43937;41.366;2.072;2023-11-18T07:49:03;101855.63;;;16.06;73.08
56040;BME280;43937;41.366;2.072;2023-11-18T07:52:43;101855.88;;;16.27;71.80
56040;BME280;43937;41.366;2.072;2023-11-18T07:57:52;101868.66;;;16.03;71.69
56040;BME280;43937;41.366;2.072;2023-11-18T08:03:50;101834.06;;;15.78;71.38
56040;BME280;43937;41.366;2.072;2023-11-18T08:08:00;101858.72;;;15.94;70.98
56040;BME280;43937;41.366;2.072;2023-11-18T08:15:22;101866.25;;;16.17;69.49
56040;BME280;43937;41.366;2.072;2023-11-18T08:18:50;101866.66;;;16.84;67.38
56040;BME280;43937;41.366;2.072;2023-11-18T08:22:10;101893.28;;;17.15;66.58
56040;BME280;43937;41.366;2.072;2023-11-18T08:28:18;101888.78;;;20.37;55.95
56040;BME280;43937;41.366;2.072;2023-11-18T08:30:43;101893.22;;;20.66;53.56
56040;BME280;43937;41.366;2.072;2023-11-18T08:33:09;101890.41;;;20.53;53.45
56040;BME280;43937;41.366;2.072;2023-11-18T08:35:35;101895.56;;;19.57;56.19
56040;BME280;43937;41.366;2.072;2023-11-18T08:38:01;101910.56;;;18.90;58.44
56040;BME280;43937;41.366;2.072;2023-11-18T08:40:26;101899.75;;;18.44;59.88
56040;BME280;43937;41.366;2.072;2023-11-18T08:42:53;101897.81;;;18.29;61.00
56040;BME280;43937;41.366;2.072;2023-11-18T08:45:28;101899.34;;;18.17;61.96
56040;BME280;43937;41.366;2.072;2023-11-18T08:48:02;101893.91;;;18.09;62.56
56040;BME280;43937;41.366;2.072;2023-11-18T08:50:36;101890.41;;;18.00;63.17
56040;BME280;43937;41.366;2.072;2023-11-18T08:54:56;101885.44;;;17.96;63.53
56040;BME280;43937;41.366;2.072;2023-11-18T08:58:20;101864.22;;;17.81;63.63
56040;BME280;43937;41.366;2.072;2023-11-18T09:08:08;101891.63;;;17.98;63.79
56040;BME280;43937;41.366;2.072;2023-11-18T09:14:03;101888.66;;;17.99;63.83
56040;BME280;43937;41.366;2.072;2023-11-18T09:16:29;101894.78;;;18.24;62.77
56040;BME280;43937;41.366;2.072;2023-11-18T09:20:08;101894.00;;;18.30;62.53
56040;BME280;43937;41.366;2.072;2023-11-18T09:24:15;101876.75;;;18.37;62.17
56040;BME280;43937;41.366;2.072;2023-11-18T09:26:45;101884.25;;;18.43;61.91
56040;BME280;43937;41.366;2.072;2023-11-18T09:29:13;101888.78;;;18.65;61.26
56040;BME280;43937;41.366;2.072;2023-11-18T09:31:46;101894.41;;;18.57;61.46
56040;BME280;43937;41.366;2.072;2023-11-18T09:35:30;101900.28;;;18.84;60.86
56040;BME280;43937;41.366;2.072;2023-11-18T09:37:59;101879.16;;;18.91;60.53
56040;BME280;43937;41.366;2.072;2023-11-18T09:40:29;101893.41;;;19.09;60.20
56040;BME280;43937;41.366;2.072;2023-11-18T09:42:58;101884.63;;;19.06;60.15
56040;BME280;43937;41.366;2.072;2023-11-18T09:45:23;101876.84;;;19.09;60.03
56040;BME280;43937;41.366;2.072;2023-11-18T09:51:06;101883.22;;;19.10;60.72
56040;BME280;43937;41.366;2.072;2023-11-18T09:56:07;101881.97;;;19.55;59.06
56040;BME280;43937;41.366;2.072;2023-11-18T10:08:24;101886.25;;;20.07;57.97
56040;BME280;43937;41.366;2.072;2023-11-18T10:10:51;101881.22;;;20.18;57.62
56040;BME280;43937;41.366;2.072;2023-11-18T10:13:30;101882.06;;;20.18;57.75
56040;BME280;43937;41.366;2.072;2023-11-18T10:18:15;101885.41;;;20.42;57.20
56040;BME280;43937;41.366;2.072;2023-11-18T10:20:50;101889.94;;;20.49;56.92
56040;BME280;43937;41.366;2.072;2023-11-18T10:23:18;101886.63;;;20.61;56.64
56040;BME280;43937;41.366;2.072;2023-11-18T10:25:56;101895.00;;;20.87;56.70
56040;BME280;43937;41.366;2.072;2023-11-18T10:32:09;101878.63;;;20.79;57.32
56040;BME280;43937;41.366;2.072;2023-11-18T10:34:45;101886.09;;;20.92;58.79
56040;BME280;43937;41.366;2.072;2023-11-18T10:38:58;101890.66;;;21.19;59.16
56040;BME280;43937;41.366;2.072;2023-11-18T10:41:25;101880.44;;;21.20;59.61
56040;BME280;43937;41.366;2.072;2023-11-18T10:44:06;101873.63;;;21.22;59.42
56040;BME280;43937;41.366;2.072;2023-11-18T10:48:27;101861.47;;;21.17;59.32
56040;BME280;43937;41.366;2.072;2023-11-18T10:52:00;101863.59;;;21.15;59.84
56040;BME280;43937;41.366;2.072;2023-11-18T10:56:25;101850.47;;;21.57;59.24
56040;BME280;43937;41.366;2.072;2023-11-18T10:59:12;101845.34;;;21.54;59.72
56040;BME280;43937;41.366;2.072;2023-11-18T11:03:29;101827.63;;;21.28;59.50
56040;BME280;43937;41.366;2.072;2023-11-18T11:09:21;101837.25;;;21.39;59.64
56040;BME280;43937;41.366;2.072;2023-11-18T11:15:36;101806.31;;;21.28;60.79
56040;BME280;43937;41.366;2.072;2023-11-18T11:18:08;101812.28;;;21.19;61.62
56040;BME280;43937;41.366;2.072;2023-11-18T11:20:41;101812.09;;;21.34;61.60
56040;BME280;43937;41.366;2.072;2023-11-18T11:27:54;101808.72;;;21.65;61.88
56040;BME280;43937;41.366;2.072;2023-11-18T11:36:50;101777.75;;;21.94;62.17
56040;BME280;43937;41.366;2.072;2023-11-18T11:39:18;101775.41;;;21.78;62.67
56040;BME280;43937;41.366;2.072;2023-11-18T11:41:52;101766.66;;;21.94;61.05
56040;BME280;43937;41.366;2.072;2023-11-18T11:48:26;101778.63;;;21.82;60.81
56040;BME280;43937;41.366;2.072;2023-11-18T11:51:22;101775.16;;;22.00;60.01
56040;BME280;43937;41.366;2.072;2023-11-18T11:54:11;101774.13;;;21.94;60.42
56040;BME280;43937;41.366;2.072;2023-11-18T11:56:44;101760.31;;;21.67;61.66
56040;BME280;43937;41.366;2.072;2023-11-18T12:01:38;101768.00;;;21.79;61.18
56040;BME280;43937;41.366;2.072;2023-11-18T12:06:41;101752.53;;;22.03;60.27
56040;BME280;43937;41.366;2.072;2023-11-18T12:10:14;101764.06;;;22.06;60.37
56040;BME280;43937;41.366;2.072;2023-11-18T12:24:30;101742.75;;;22.07;57.97
56040;BME280;43937;41.366;2.072;2023-11-18T12:26:59;101736.34;;;22.06;58.54
56040;BME280;43937;41.366;2.072;2023-11-18T12:29:32;101719.69;;;22.13;57.04
56040;BME280;43937;41.366;2.072;2023-11-18T12:42:51;101705.25;;;21.98;55.63
56040;BME280;43937;41.366;2.072;2023-11-18T12:48:31;101690.25;;;22.05;54.70
56040;BME280;43937;41.366;2.072;2023-11-18T12:50:57;101684.56;;;22.00;52.97
56040;BME280;43937;41.366;2.072;2023-11-18T12:53:24;101694.97;;;22.18;53.70
56040;BME280;43937;41.366;2.072;2023-11-18T12:57:13;101696.22;;;22.15;53.86
56040;BME280;43937;41.366;2.072;2023-11-18T12:59:40;101694.31;;;22.03;54.04
56040;BME280;43937;41.366;2.072;2023-11-18T13:03:02;101670.91;;;21.99;53.67
56040;BME280;43937;41.366;2.072;2023-11-18T13:05:28;101679.44;;;21.97;54.30
56040;BME280;43937;41.366;2.072;2023-11-18T13:08:04;101668.31;;;22.04;54.25
56040;BME280;43937;41.366;2.072;2023-11-18T13:14:38;101663.81;;;22.03;53.32
56040;BME280;43937;41.366;2.072;2023-11-18T13:18:46;101670.50;;;21.95;53.25
56040;BME280;43937;41.366;2.072;2023-11-18T13:23:32;101674.44;;;22.26;52.60
56040;BME280;43937;41.366;2.072;2023-11-18T13:29:00;101663.13;;;22.14;52.22
56040;BME280;43937;41.366;2.072;2023-11-18T13:31:27;101656.50;;;22.28;51.54
56040;BME280;43937;41.366;2.072;2023-11-18T13:34:28;101665.03;;;22.27;51.36
56040;BME280;43937;41.366;2.072;2023-11-18T13:38:07;101627.22;;;21.87;51.68
56040;BME280;43937;41.366;2.072;2023-11-18T13:40:45;101644.56;;;22.14;51.36
56040;BME280;43937;41.366;2.072;2023-11-18T13:43:12;101648.38;;;22.33;51.78
56040;BME280;43937;41.366;2.072;2023-11-18T13:45:38;101648.72;;;22.44;51.24
56040;BME280;43937;41.366;2.072;2023-11-18T13:48:05;101632.81;;;22.26;51.02
56040;BME280;43937;41.366;2.072;2023-11-18T13:50:34;101642.63;;;22.28;51.11
56040;BME280;43937;41.366;2.072;2023-11-18T13:54:29;101619.00;;;22.12;50.58
56040;BME280;43937;41.366;2.072;2023-11-18T13:57:05;101637.66;;;22.37;50.78
56040;BME280;43937;41.366;2.072;2023-11-18T14:01:21;101648.22;;;22.22;50.96
56040;BME280;43937;41.366;2.072;2023-11-18T14:08:20;101639.91;;;22.15;51.43
56040;BME280;43937;41.366;2.072;2023-11-18T14:13:17;101605.78;;;21.69;52.02
56040;BME280;43937;41.366;2.072;2023-11-18T14:17:03;101617.38;;;21.98;52.17
56040;BME280;43937;41.366;2.072;2023-11-18T14:20:25;101634.38;;;22.08;52.30
56040;BME280;43937;41.366;2.072;2023-11-18T14:22:50;101627.50;;;22.24;51.67
56040;BME280;43937;41.366;2.072;2023-11-18T14:25:17;101636.69;;;22.25;51.82
56040;BME280;43937;41.366;2.072;2023-11-18T14:27:42;101631.78;;;22.20;52.16
56040;BME280;43937;41.366;2.072;2023-11-18T14:30:08;101623.53;;;22.07;52.35
56040;BME280;43937;41.366;2.072;2023-11-18T14:32:35;101629.19;;;21.80;53.10
56040;BME280;43937;41.366;2.072;2023-11-18T14:38:04;101633.56;;;22.01;53.44
56040;BME280;43937;41.366;2.072;2023-11-18T14:40:30;101637.00;;;21.96;53.74
56040;BME280;43937;41.366;2.072;2023-11-18T14:42:57;101638.63;;;22.11;53.77
56040;BME280;43937;41.366;2.072;2023-11-18T14:46:16;101639.28;;;22.13;53.96
56040;BME280;43937;41.366;2.072;2023-11-18T14:49:45;101624.44;;;21.94;54.52
56040;BME280;43937;41.366;2.072;2023-11-18T14:52:10;101641.47;;;21.98;54.62
56040;BME280;43937;41.366;2.072;2023-11-18T14:54:35;101627.66;;;21.91;54.88
56040;BME280;43937;41.366;2.072;2023-11-18T14:57:04;101625.53;;;21.86;55.35
56040;BME280;43937;41.366;2.072;2023-11-18T15:00:38;101620.91;;;21.73;55.44
56040;BME280;43937;41.366;2.072;2023-11-18T15:04:33;101609.22;;;21.65;56.14
56040;BME280;43937;41.366;2.072;2023-11-18T15:10:06;101626.75;;;21.45;57.90
56040;BME280;43937;41.366;2.072;2023-11-18T15:15:45;101636.53;;;21.48;58.43
56040;BME280;43937;41.366;2.072;2023-11-18T15:21:17;101636.53;;;21.35;58.82
56040;BME280;43937;41.366;2.072;2023-11-18T15:23:43;101628.69;;;21.25;59.47
56040;BME280;43937;41.366;2.072;2023-11-18T15:29:01;101635.50;;;21.16;59.70
56040;BME280;43937;41.366;2.072;2023-11-18T15:31:28;101645.50;;;21.17;60.12
56040;BME280;43937;41.366;2.072;2023-11-18T15:36:18;101631.50;;;20.92;60.85
56040;BME280;43937;41.366;2.072;2023-11-18T15:39:24;101636.59;;;20.95;60.75
56040;BME280;43937;41.366;2.072;2023-11-18T15:41:49;101660.00;;;20.92;61.03
56040;BME280;43937;41.366;2.072;2023-11-18T15:44:14;101642.53;;;20.72;61.93
56040;BME280;43937;41.366;2.072;2023-11-18T15:46:47;101651.50;;;20.74;62.36
56040;BME280;43937;41.366;2.072;2023-11-18T15:49:12;101648.31;;;20.77;61.90
56040;BME280;43937;41.366;2.072;2023-11-18T15:52:16;101654.03;;;20.69;61.69
56040;BME280;43937;41.366;2.072;2023-11-18T15:58:50;101639.09;;;20.43;61.10
56040;BME280;43937;41.366;2.072;2023-11-18T16:02:04;101659.72;;;20.47;62.18
56040;BME280;43937;41.366;2.072;2023-11-18T16:04:31;101661.41;;;20.48;62.78
56040;BME280;43937;41.366;2.072;2023-11-18T16:06:56;101661.81;;;20.32;64.13
56040;BME280;43937;41.366;2.072;2023-11-18T16:09:22;101665.63;;;20.24;64.02
56040;BME280;43937;41.366;2.072;2023-11-18T16:11:47;101669.66;;;20.22;64.43
56040;BME280;43937;41.366;2.072;2023-11-18T16:14:14;101648.13;;;19.97;65.27
56040;BME280;43937;41.366;2.072;2023-11-18T16:16:41;101670.78;;;19.86;66.27
56040;BME280;43937;41.366;2.072;2023-11-18T16:19:07;101670.13;;;19.84;66.42
56040;BME280;43937;41.366;2.072;2023-11-18T16:21:36;101671.13;;;19.70;67.60
56040;BME280;43937;41.366;2.072;2023-11-18T16:24:17;101674.63;;;19.57;68.22
56040;BME280;43937;41.366;2.072;2023-11-18T16:26:43;101671.19;;;19.48;68.49
56040;BME280;43937;41.366;2.072;2023-11-18T16:29:10;101651.63;;;19.43;68.49
56040;BME280;43937;41.366;2.072;2023-11-18T16:33:31;101666.00;;;19.32;69.36
56040;BME280;43937;41.366;2.072;2023-11-18T16:35:57;101665.94;;;19.25;69.96
56040;BME280;43937;41.366;2.072;2023-11-18T16:38:24;101672.75;;;19.29;70.15
56040;BME280;43937;41.366;2.072;2023-11-18T16:40:49;101677.84;;;19.26;70.02
56040;BME280;43937;41.366;2.072;2023-11-18T16:43:15;101673.53;;;19.16;70.23
56040;BME280;43937;41.366;2.072;2023-11-18T16:45:40;101679.50;;;19.20;70.23
56040;BME280;43937;41.366;2.072;2023-11-18T16:48:06;101673.53;;;19.16;69.46
56040;BME280;43937;41.366;2.072;2023-11-18T16:50:31;101690.22;;;19.08;69.90
56040;BME280;43937;41.366;2.072;2023-11-18T16:52:56;101683.13;;;18.99;70.19
56040;BME280;43937;41.366;2.072;2023-11-18T16:55:24;101683.19;;;19.06;69.80
56040;BME280;43937;41.366;2.072;2023-11-18T16:59:58;101665.63;;;18.85;70.79
56040;BME280;43937;41.366;2.072;2023-11-18T17:02:24;101676.28;;;18.88;71.91
56040;BME280;43937;41.366;2.072;2023-11-18T17:04:50;101678.16;;;18.88;72.64
56040;BME280;43937;41.366;2.072;2023-11-18T17:10:57;101688.56;;;18.86;72.76
56040;BME280;43937;41.366;2.072;2023-11-18T17:13:23;101690.19;;;18.80;72.70
56040;BME280;43937;41.366;2.072;2023-11-18T17:15:50;101684.72;;;18.87;72.17
56040;BME280;43937;41.366;2.072;2023-11-18T17:18:16;101704.72;;;18.89;72.79
56040;BME280;43937;41.366;2.072;2023-11-18T17:20:41;101684.88;;;18.79;73.62
56040;BME280;43937;41.366;2.072;2023-11-18T17:28:56;101683.31;;;18.54;75.00
56040;BME280;43937;41.366;2.072;2023-11-18T17:32:58;101699.47;;;18.58;75.18